Grand Pass, Missouri
Current Conditions -  °F | °C
As of 5:58 PM on Friday 24 Oct 2014 (Local Time) from KSZL Reporting Station
Clear Clear  
Wind Chill: 73°   Ceiling: Unl
Heat Index: 73°   Visibility: 10mi
Dew Point: 62°   Wind: 16mph
Humidity: 68%   Direction: 210°SSW
Pressure: 29.96"   Gusts: NA
Location:  39.2052°N, 93.3822°W
Report Text: KSZL 242258Z AUTO 21014KT 10SM CLR 23/17 A2996 RMK AO2 DZB2253 SLP144 P0000 T02270166 $
Loading
Personal Weather Stations






























Interactive Weather Map
Tropical Storm Tracking
New forecast layout! Learn more

10-Day Weather Forecast

Advertisements
Track Severe Weather on mobile